createdAt,value
2023-04-09T00:08:38.641Z,4.35
2023-04-09T00:12:40.505Z,5.20
2023-04-09T00:16:42.273Z,5.53
2023-04-09T00:20:44.769Z,4.72
2023-04-09T00:24:46.439Z,5.25
2023-04-09T00:28:48.273Z,4.95
2023-04-09T00:32:50.721Z,5.38
2023-04-09T00:36:52.534Z,5.38
2023-04-09T00:40:54.292Z,4.53
2023-04-09T00:44:56.096Z,4.78
2023-04-09T00:48:57.821Z,4.28
2023-04-09T00:52:59.561Z,4.88
2023-04-09T00:57:01.845Z,4.35
2023-04-09T01:01:03.856Z,4.68
2023-04-09T01:05:06.336Z,4.43
2023-04-09T01:09:28.657Z,5.93
2023-04-09T01:14:06.516Z,6.35
2023-04-09T01:18:16.083Z,7.20
2023-04-09T01:22:37.355Z,6.68
2023-04-09T01:26:52.579Z,6.93
2023-04-09T01:31:03.079Z,6.63
2023-04-09T01:35:07.274Z,6.40
2023-04-09T01:39:09.618Z,6.03
2023-04-09T01:43:14.013Z,6.03
2023-04-09T01:47:16.036Z,6.55
2023-04-09T01:51:18.502Z,5.33
2023-04-09T01:55:20.146Z,6.15
2023-04-09T01:59:21.803Z,6.78
2023-04-09T02:03:40.135Z,6.68
2023-04-09T02:07:46.282Z,7.05
2023-04-09T02:11:50.138Z,7.60
2023-04-09T02:15:52.757Z,5.90
2023-04-09T02:19:54.758Z,7.05
2023-04-09T02:23:56.580Z,6.22
2023-04-09T02:27:59.076Z,6.45
2023-04-09T02:32:00.795Z,6.90
2023-04-09T02:36:02.737Z,8.52
2023-04-09T02:40:04.729Z,5.50
2023-04-09T02:44:06.760Z,7.07
2023-04-09T02:48:08.564Z,6.77
2023-04-09T02:52:11.535Z,8.55
2023-04-09T02:56:13.409Z,7.85
2023-04-09T03:00:15.289Z,7.57
2023-04-09T03:04:17.384Z,8.38
2023-04-09T03:08:19.095Z,8.57
2023-04-09T03:12:20.806Z,7.75
2023-04-09T03:16:25.200Z,9.38
2023-04-09T03:20:26.928Z,8.38
2023-04-09T03:24:28.697Z,8.80
2023-04-09T03:28:35.685Z,8.73
2023-04-09T03:32:38.468Z,8.00
2023-04-09T03:36:40.469Z,8.32
2023-04-09T03:40:50.644Z,7.38
2023-04-09T03:44:55.246Z,7.50
2023-04-09T03:49:07.865Z,7.82
2023-04-09T03:53:16.532Z,7.72
2023-04-09T03:57:20.744Z,8.02
2023-04-09T04:01:25.626Z,8.48
2023-04-09T04:05:31.852Z,8.00
2023-04-09T04:09:37.875Z,9.65
2023-04-09T04:13:44.516Z,8.57
2023-04-09T04:17:46.489Z,7.70
2023-04-09T04:22:04.036Z,7.43
2023-04-09T04:26:11.067Z,8.65
2023-04-09T04:30:13.271Z,8.50
2023-04-09T04:34:28.392Z,7.70
2023-04-09T04:38:41.359Z,8.65
2023-04-09T04:42:49.031Z,11.32
2023-04-09T04:46:51.531Z,11.02
2023-04-09T04:51:01.252Z,9.57
2023-04-09T04:55:10.788Z,10.65
2023-04-09T04:59:12.662Z,10.30
2023-04-09T05:03:34.682Z,9.10
2023-04-09T05:07:58.666Z,8.25
2023-04-09T05:12:01.423Z,10.60
2023-04-09T05:16:04.044Z,11.23
2023-04-09T05:20:08.608Z,10.38
2023-04-09T05:24:27.301Z,9.18
2023-04-09T05:28:30.023Z,9.02
2023-04-09T05:32:41.585Z,9.13
2023-04-09T05:36:43.434Z,9.18
2023-04-09T05:44:48.703Z,9.82
2023-04-09T05:48:54.531Z,8.52
2023-04-09T05:52:58.380Z,9.85
2023-04-09T05:57:07.198Z,10.18
2023-04-09T06:01:12.000Z,9.93
2023-04-09T06:05:14.056Z,10.88
2023-04-09T06:09:15.785Z,9.57
2023-04-09T06:13:17.719Z,11.73
2023-04-09T06:17:19.519Z,11.17
2023-04-09T06:21:21.436Z,12.17
2023-04-09T06:25:23.090Z,11.23
2023-04-09T06:29:24.808Z,12.15
2023-04-09T06:33:27.099Z,11.32
2023-04-09T06:37:28.759Z,12.38
2023-04-09T06:41:30.945Z,14.00
2023-04-09T06:45:33.766Z,12.13
2023-04-09T06:49:35.990Z,14.05
2023-04-09T06:53:40.941Z,12.97
2023-04-09T06:57:42.809Z,13.38
2023-04-09T07:01:45.163Z,12.60
2023-04-09T07:05:47.376Z,11.68
2023-04-09T07:09:49.270Z,9.03
2023-04-09T07:13:51.436Z,11.68
2023-04-09T07:17:53.385Z,13.27
2023-04-09T07:21:55.599Z,13.75
2023-04-09T07:25:57.318Z,13.07
2023-04-09T07:29:59.950Z,12.30
2023-04-09T07:34:01.587Z,12.88
2023-04-09T07:38:03.517Z,12.05
2023-04-09T07:42:06.504Z,12.30
2023-04-09T07:50:10.590Z,11.82
2023-04-09T07:54:12.272Z,13.13
2023-04-09T07:58:13.928Z,12.75
2023-04-09T08:02:15.847Z,12.02
2023-04-09T08:06:17.548Z,12.93
2023-04-09T08:10:19.612Z,23.08
2023-04-09T08:14:21.564Z,12.63
2023-04-09T08:18:23.294Z,10.27
2023-04-09T08:22:24.968Z,13.20
2023-04-09T08:26:27.458Z,12.88
2023-04-09T08:30:29.509Z,11.68
2023-04-09T08:34:31.153Z,11.47
2023-04-09T08:38:32.798Z,11.40
2023-04-09T08:42:35.901Z,12.75
2023-04-09T08:46:37.593Z,12.27
2023-04-09T08:50:39.578Z,14.02
2023-04-09T08:54:41.282Z,11.53
2023-04-09T08:58:47.246Z,11.80
2023-04-09T09:03:11.935Z,12.07
2023-04-09T09:07:14.095Z,10.15
2023-04-09T09:11:27.242Z,12.10
2023-04-09T09:15:30.264Z,11.65
2023-04-09T09:19:33.796Z,11.43
2023-04-09T09:23:36.898Z,11.88
2023-04-09T09:27:40.685Z,11.85
2023-04-09T09:31:51.736Z,9.95
2023-04-09T09:35:54.687Z,8.38
2023-04-09T09:39:57.101Z,8.90
2023-04-09T09:43:58.930Z,8.00
2023-04-09T09:48:00.784Z,7.63
2023-04-09T09:52:04.848Z,8.30
2023-04-09T09:56:12.035Z,7.55
2023-04-09T10:00:15.836Z,8.43
2023-04-09T10:04:20.168Z,8.52
2023-04-09T10:08:23.731Z,8.27
2023-04-09T10:12:27.386Z,6.93
2023-04-09T10:16:29.198Z,7.72
2023-04-09T10:20:42.032Z,7.30
2023-04-09T10:28:46.463Z,6.80
2023-04-09T10:32:48.227Z,7.97
2023-04-09T10:36:55.052Z,7.43
2023-04-09T10:40:56.750Z,8.10
2023-04-09T10:45:08.288Z,7.32
2023-04-09T10:49:17.206Z,8.18
2023-04-09T10:53:26.390Z,9.00
2023-04-09T10:57:28.170Z,8.30
2023-04-09T11:01:31.093Z,7.65
2023-04-09T11:05:34.672Z,7.53
2023-04-09T11:09:36.676Z,5.97
2023-04-09T11:13:38.513Z,5.67
2023-04-09T11:17:40.911Z,5.43
2023-04-09T11:21:46.432Z,6.53
2023-04-09T11:25:50.803Z,5.15
2023-04-09T11:29:56.306Z,5.63
2023-04-09T11:33:57.985Z,5.65
2023-04-09T11:37:59.752Z,6.07
2023-04-09T11:42:02.116Z,5.70
2023-04-09T11:46:04.756Z,5.82
2023-04-09T11:50:08.149Z,5.28
2023-04-09T11:54:12.082Z,5.53
2023-04-09T11:58:14.808Z,6.30
2023-04-09T12:02:18.603Z,5.20
2023-04-09T12:06:23.163Z,4.80
2023-04-09T12:10:29.813Z,4.88
2023-04-09T12:14:31.525Z,5.45
2023-04-09T12:18:36.916Z,5.00
2023-04-09T12:22:41.055Z,4.95
2023-04-09T12:26:43.783Z,5.50
2023-04-09T12:34:47.650Z,5.43
2023-04-09T12:38:49.894Z,5.32
2023-04-09T12:42:51.842Z,6.25
2023-04-09T12:46:53.843Z,5.13
2023-04-09T12:50:55.540Z,5.50
2023-04-09T12:54:57.268Z,5.80
2023-04-09T12:58:59.070Z,5.25
2023-04-09T13:03:00.886Z,5.27
2023-04-09T13:07:02.658Z,5.20
2023-04-09T13:11:04.624Z,4.83
2023-04-09T13:15:06.919Z,4.77
2023-04-09T13:19:10.126Z,4.45
2023-04-09T13:23:11.864Z,4.97
2023-04-09T13:27:14.084Z,5.33
2023-04-09T13:31:15.836Z,4.60
2023-04-09T13:35:19.209Z,4.72
2023-04-09T13:39:20.867Z,4.70
2023-04-09T13:43:28.076Z,4.78
2023-04-09T13:47:30.527Z,4.75
2023-04-09T13:51:32.385Z,4.95
2023-04-09T13:55:34.408Z,4.72
2023-04-09T13:59:38.194Z,4.22
2023-04-09T14:03:40.736Z,4.47
2023-04-09T14:11:44.072Z,3.72
2023-04-09T14:15:46.403Z,4.57
2023-04-09T14:19:48.209Z,4.22
2023-04-09T14:23:50.046Z,3.22
2023-04-09T14:27:52.280Z,3.67
2023-04-09T14:31:57.158Z,3.63
2023-04-09T14:35:59.348Z,3.92
2023-04-09T14:40:01.180Z,3.50
2023-04-09T14:44:02.986Z,2.92
2023-04-09T14:48:04.648Z,3.00
2023-04-09T14:52:06.588Z,2.40
2023-04-09T14:56:08.441Z,3.10
2023-04-09T15:00:14.086Z,2.70
2023-04-09T15:04:16.280Z,2.67
2023-04-09T15:08:18.093Z,2.70
2023-04-09T15:12:19.790Z,2.90
2023-04-09T15:16:27.259Z,2.60
2023-04-09T15:20:29.004Z,2.22
2023-04-09T15:24:30.673Z,2.50
2023-04-09T15:28:33.381Z,3.08
2023-04-09T15:36:36.720Z,3.03
2023-04-09T15:40:42.601Z,2.92
2023-04-09T15:45:04.996Z,2.40
2023-04-09T15:49:07.492Z,2.85
2023-04-09T15:53:09.197Z,2.70
2023-04-09T15:57:11.099Z,2.38
2023-04-09T16:01:13.039Z,3.23
2023-04-09T16:05:15.735Z,2.53
2023-04-09T16:09:17.522Z,2.93
2023-04-09T16:13:19.260Z,2.50
2023-04-09T16:17:20.984Z,2.28
2023-04-09T16:21:22.799Z,2.35
2023-04-09T16:25:24.689Z,1.90
2023-04-09T16:29:26.515Z,2.23
2023-04-09T16:33:29.105Z,2.33
2023-04-09T16:37:31.371Z,2.35
2023-04-09T16:41:35.011Z,1.83
2023-04-09T16:45:39.036Z,2.80
2023-04-09T16:49:41.002Z,1.92
2023-04-09T16:53:42.747Z,2.57
2023-04-09T16:57:45.079Z,2.70
2023-04-09T17:01:46.981Z,2.80
2023-04-09T17:05:49.501Z,2.30
2023-04-09T17:09:51.563Z,2.80
2023-04-09T17:13:53.872Z,2.40
2023-04-09T17:17:55.568Z,3.05
2023-04-09T17:21:57.319Z,3.45
2023-04-09T17:26:01.180Z,2.47
2023-04-09T17:30:04.398Z,3.28
2023-04-09T17:34:08.683Z,3.13
2023-04-09T17:38:14.073Z,3.00
2023-04-09T17:42:15.753Z,2.80
2023-04-09T17:46:18.076Z,2.63
2023-04-09T17:50:19.913Z,2.75
2023-04-09T17:54:21.900Z,2.70
2023-04-09T17:58:25.053Z,2.53
2023-04-09T18:02:27.687Z,4.38
2023-04-09T18:10:31.879Z,2.33
2023-04-09T18:14:33.709Z,3.00
2023-04-09T18:18:35.380Z,3.05
2023-04-09T18:22:38.329Z,2.88
2023-04-09T18:26:40.001Z,3.03
2023-04-09T18:30:42.088Z,3.10
2023-04-09T18:34:45.242Z,2.63
2023-04-09T18:38:47.097Z,3.53
2023-04-09T18:42:55.093Z,3.13
2023-04-09T18:46:57.204Z,2.97
2023-04-09T18:51:00.570Z,3.67
2023-04-09T18:55:02.246Z,2.80
2023-04-09T18:59:05.061Z,3.20
2023-04-09T19:03:07.313Z,3.00
2023-04-09T19:07:09.748Z,3.55
2023-04-09T19:11:12.721Z,3.27
2023-04-09T19:19:15.952Z,3.10
2023-04-09T19:23:17.719Z,3.15
2023-04-09T19:27:19.625Z,2.95
2023-04-09T19:31:21.402Z,3.72
2023-04-09T19:35:23.321Z,3.90
2023-04-09T19:39:25.015Z,3.40
2023-04-09T19:43:27.058Z,3.43
2023-04-09T19:47:29.143Z,3.88
2023-04-09T19:51:30.866Z,3.03
2023-04-09T19:55:33.527Z,3.30
2023-04-09T19:59:37.565Z,3.67
2023-04-09T20:03:41.671Z,4.30
2023-04-09T20:07:44.485Z,3.95
2023-04-09T20:11:46.871Z,3.83
2023-04-09T20:15:50.027Z,3.92
2023-04-09T20:19:51.698Z,3.03
2023-04-09T20:23:53.359Z,3.25
2023-04-09T20:27:55.366Z,3.60
2023-04-09T20:31:57.926Z,3.33
2023-04-09T20:36:00.115Z,3.65
2023-04-09T20:40:02.170Z,3.63
2023-04-09T20:44:05.005Z,3.50
2023-04-09T20:48:07.502Z,3.65
2023-04-09T20:52:09.691Z,3.83
2023-04-09T20:56:12.784Z,3.93
2023-04-09T21:00:15.194Z,4.53
2023-04-09T21:04:19.774Z,4.53
2023-04-09T21:08:21.524Z,4.13
2023-04-09T21:12:23.161Z,4.70
2023-04-09T21:16:27.329Z,4.13
2023-04-09T21:20:29.073Z,4.43
2023-04-09T21:24:31.552Z,4.60
2023-04-09T21:28:33.325Z,3.92
2023-04-09T21:32:35.147Z,4.30
2023-04-09T21:36:39.456Z,4.55
2023-04-09T21:40:41.170Z,4.35
2023-04-09T21:44:42.937Z,4.63
2023-04-09T21:48:44.609Z,4.38
2023-04-09T21:52:47.421Z,4.30
2023-04-09T21:56:49.066Z,4.57
2023-04-09T22:00:50.835Z,4.80
2023-04-09T22:04:52.519Z,4.82
2023-04-09T22:08:57.157Z,4.63
2023-04-09T22:12:59.681Z,4.43
2023-04-09T22:17:02.270Z,4.90
2023-04-09T22:21:04.980Z,4.80
2023-04-09T22:25:07.262Z,4.95
2023-04-09T22:29:08.928Z,4.83
2023-04-09T22:33:10.827Z,4.43
2023-04-09T22:37:12.478Z,4.80
2023-04-09T22:41:16.089Z,4.85
2023-04-09T22:45:17.795Z,4.65
2023-04-09T22:49:19.595Z,4.75
2023-04-09T22:53:21.878Z,5.38
2023-04-09T22:57:23.579Z,4.40
2023-04-09T23:01:25.385Z,5.05
2023-04-09T23:05:27.131Z,4.93
2023-04-09T23:09:30.409Z,5.03
2023-04-09T23:13:32.058Z,5.00
2023-04-09T23:17:35.275Z,5.22
2023-04-09T23:21:37.239Z,5.47
2023-04-09T23:25:38.916Z,5.20
2023-04-09T23:29:40.528Z,4.70
2023-04-09T23:33:42.286Z,5.40
2023-04-09T23:37:44.092Z,5.45
2023-04-09T23:41:45.959Z,5.47
2023-04-09T23:45:49.939Z,5.40
2023-04-09T23:49:51.591Z,5.00
2023-04-09T23:53:53.458Z,5.53
2023-04-09T23:57:55.307Z,5.83
